Pagina principale
METAR-TAF:

METAR-TAF

Aeroporti :

Aeroporto di Pescara

Pescara, Italia

latitudine: 42-26N, longitudine: 014-12E, altezza: 10 m

Osservazione

Il bollettino è stato emesso 1 ora e 5 minuti fa, alle 11:50 UTC
Vento 10 kt da nord-est
Temperature 16°C
Umidità 77%
Pressione 999 hPa
Visibilità 10 km o più
nessuna nube inferiore a 1500 m e nessun cumulonembo

METAR: LIBP 131150Z 05010KT CAVOK 16/12 Q0999

Ora: 13:55 (12:55 UTC)

Previsione

Il bollettino è stato emesso 27 minuti fa, alle 12:28 UTC
Previsione valida dal 13 alle 12 UTC al 14 alle 12 UTC
Vento 10 kt da nord-est
Visibilità 10 km o più
Nubi sparse ad un'altezza di 3000 ft

TAF: LIBP 131228Z 1312/1412 05010KT 9999 SCT030

Osservazioni e previsioni meteorologiche di più di 4000 aeroporti (messaggi METAR e TAF).

Le stazioni disponibili sono rappresentate dai dischi gialli e rossi sulla carta.

Puntare il mouse per vedere il nome della stazione.

Clicca sopra per visualizzare le osservazioni e previsioni meteorologiche.

Per cambiare la mappa : fare clic sui pulsanti verdi con una croce nera per ingrandire, il pulsante verde con un trattino per diminuire, o sulla freccia verde per le mappe adiacenti.


METAR-TAF: